createdAt,value
2022-10-06T00:01:03.374Z,8.50
2022-10-06T00:06:14.814Z,8.80
2022-10-06T00:11:18.260Z,9.20
2022-10-06T00:16:24.678Z,8.50
2022-10-06T00:21:27.727Z,9.10
2022-10-06T00:26:31.148Z,9.00
2022-10-06T00:31:34.729Z,8.70
2022-10-06T00:36:37.977Z,9.20
2022-10-06T00:41:40.878Z,8.60
2022-10-06T00:46:46.612Z,9.20
2022-10-06T00:51:53.795Z,8.10
2022-10-06T00:56:57.785Z,7.60
2022-10-06T01:02:12.055Z,7.80
2022-10-06T01:07:17.211Z,9.10
2022-10-06T01:12:21.213Z,7.20
2022-10-06T01:17:33.565Z,8.80
2022-10-06T01:22:39.802Z,9.00
2022-10-06T01:27:46.935Z,8.60
2022-10-06T01:32:50.167Z,9.40
2022-10-06T01:37:55.015Z,8.40
2022-10-06T01:42:57.815Z,9.20
2022-10-06T01:48:00.825Z,8.70
2022-10-06T01:53:03.726Z,8.90
2022-10-06T01:58:06.659Z,8.00
2022-10-06T02:03:09.638Z,7.60
2022-10-06T02:08:12.542Z,9.20
2022-10-06T02:13:15.651Z,8.80
2022-10-06T02:18:18.863Z,8.30
2022-10-06T02:23:21.766Z,8.50
2022-10-06T02:28:24.626Z,8.80
2022-10-06T02:33:27.679Z,8.90
2022-10-06T02:38:32.801Z,8.90
2022-10-06T02:43:36.047Z,5.90
2022-10-06T02:48:40.894Z,9.90
2022-10-06T02:53:46.007Z,8.50
2022-10-06T02:58:51.110Z,9.00
2022-10-06T03:03:54.694Z,8.80
2022-10-06T03:09:00.191Z,9.20
2022-10-06T03:14:03.275Z,9.10
2022-10-06T03:19:07.434Z,9.10
2022-10-06T03:24:11.121Z,9.10
2022-10-06T03:29:16.158Z,9.40
2022-10-06T03:34:19.016Z,10.40
2022-10-06T03:39:21.819Z,9.90
2022-10-06T03:44:24.723Z,9.60
2022-10-06T03:49:27.522Z,8.50
2022-10-06T03:54:30.427Z,7.70
2022-10-06T03:59:34.475Z,9.70
2022-10-06T04:04:38.830Z,8.60
2022-10-06T04:09:41.698Z,9.00
2022-10-06T04:14:44.505Z,6.50
2022-10-06T04:19:47.311Z,8.50
2022-10-06T04:24:50.826Z,9.40
2022-10-06T04:29:53.727Z,9.60
2022-10-06T04:34:56.533Z,9.00
2022-10-06T04:39:59.739Z,9.70
2022-10-06T04:45:03.363Z,7.90
2022-10-06T04:50:06.644Z,9.10
2022-10-06T04:55:11.318Z,8.70
2022-10-06T05:00:23.087Z,8.90
2022-10-06T05:05:25.969Z,8.40
2022-10-06T05:10:29.457Z,9.00
2022-10-06T05:15:32.563Z,7.90
2022-10-06T05:20:35.568Z,7.80
2022-10-06T05:25:38.456Z,9.00
2022-10-06T05:30:41.310Z,7.80
2022-10-06T05:35:55.238Z,8.30
2022-10-06T05:41:06.453Z,7.70
2022-10-06T05:46:17.675Z,7.80
2022-10-06T05:51:23.100Z,7.60
2022-10-06T05:56:32.646Z,6.90
2022-10-06T06:01:40.027Z,8.10
2022-10-06T06:06:45.435Z,7.30
2022-10-06T06:11:51.101Z,7.80
2022-10-06T06:16:54.056Z,6.70
2022-10-06T06:21:57.240Z,7.20
2022-10-06T06:27:00.023Z,7.50
2022-10-06T06:32:02.923Z,6.90
2022-10-06T06:37:09.431Z,6.90
2022-10-06T06:42:14.572Z,7.10
2022-10-06T06:47:19.944Z,6.60
2022-10-06T06:52:26.224Z,6.40
2022-10-06T06:57:29.128Z,5.70
2022-10-06T07:02:32.054Z,4.90
2022-10-06T07:07:36.260Z,6.10
2022-10-06T07:12:39.164Z,7.30
2022-10-06T07:18:01.423Z,7.30
2022-10-06T07:23:23.476Z,6.60
2022-10-06T07:28:26.321Z,6.60
2022-10-06T07:33:31.333Z,7.10
2022-10-06T07:38:34.238Z,5.50
2022-10-06T07:43:37.041Z,4.70
2022-10-06T07:48:40.164Z,5.30
2022-10-06T07:53:50.308Z,5.40
2022-10-06T07:58:53.167Z,4.30
2022-10-06T08:03:56.745Z,4.30
2022-10-06T08:08:59.546Z,4.40
2022-10-06T08:14:02.456Z,4.20
2022-10-06T08:19:05.252Z,3.80
2022-10-06T08:24:08.101Z,4.00
2022-10-06T08:29:11.784Z,3.60
2022-10-06T08:34:15.197Z,3.40
2022-10-06T08:39:18.953Z,3.50
2022-10-06T08:44:43.430Z,3.40
2022-10-06T08:49:48.485Z,3.10
2022-10-06T08:55:14.125Z,3.10
2022-10-06T09:00:21.227Z,2.50
2022-10-06T09:05:26.934Z,2.40
2022-10-06T09:10:38.708Z,2.50
2022-10-06T09:15:50.060Z,2.60
2022-10-06T09:20:57.370Z,3.00
2022-10-06T09:26:02.170Z,2.70
2022-10-06T09:31:37.876Z,2.60
2022-10-06T09:37:02.306Z,2.50
2022-10-06T09:42:14.164Z,2.60
2022-10-06T09:47:37.152Z,2.00
2022-10-06T09:53:05.854Z,2.30
2022-10-06T09:58:18.794Z,2.30
2022-10-06T10:03:23.286Z,2.10
2022-10-06T10:08:30.864Z,2.10
2022-10-06T10:18:48.333Z,2.10
2022-10-06T10:23:59.834Z,2.20
2022-10-06T10:29:21.274Z,1.90
2022-10-06T10:34:55.472Z,1.80
2022-10-06T10:40:03.754Z,1.50
2022-10-06T10:45:25.624Z,1.60
2022-10-06T10:50:48.256Z,1.60
2022-10-06T10:55:53.417Z,1.50
2022-10-06T11:01:05.562Z,1.50
2022-10-06T11:06:22.264Z,1.70
2022-10-06T11:12:00.702Z,1.50
2022-10-06T11:17:12.557Z,1.70
2022-10-06T11:22:34.466Z,1.60
2022-10-06T11:27:49.511Z,1.60
2022-10-06T11:33:14.597Z,1.40
2022-10-06T11:38:35.101Z,1.50
2022-10-06T11:44:05.445Z,1.50
2022-10-06T11:49:30.883Z,1.40
2022-10-06T11:54:56.586Z,1.40
2022-10-06T12:00:02.390Z,1.40
2022-10-06T12:10:49.158Z,1.50
2022-10-06T12:22:11.564Z,1.60
2022-10-06T12:27:35.572Z,1.50
2022-10-06T12:32:58.029Z,1.50
2022-10-06T12:38:06.217Z,1.30
2022-10-06T12:43:14.899Z,1.30
2022-10-06T12:48:41.665Z,1.50
2022-10-06T12:53:53.782Z,1.30
2022-10-06T12:58:56.683Z,1.60
2022-10-06T13:03:59.596Z,1.50
2022-10-06T13:09:13.083Z,1.40
2022-10-06T13:14:16.456Z,1.40
2022-10-06T13:19:27.142Z,1.30
2022-10-06T13:24:30.256Z,1.90
2022-10-06T13:29:33.156Z,1.70
2022-10-06T13:34:43.408Z,1.60
2022-10-06T13:39:46.844Z,1.60
2022-10-06T13:45:01.632Z,1.50
2022-10-06T13:50:18.770Z,1.60
2022-10-06T13:55:25.478Z,1.40
2022-10-06T14:00:30.120Z,1.30
2022-10-06T14:05:45.911Z,1.30
2022-10-06T14:10:55.067Z,1.30
2022-10-06T14:16:03.012Z,1.70
2022-10-06T14:21:27.705Z,1.30
2022-10-06T14:26:34.603Z,1.60
2022-10-06T14:31:37.530Z,1.80
2022-10-06T14:36:42.665Z,1.20
2022-10-06T14:41:45.983Z,1.30
2022-10-06T14:46:50.382Z,1.70
2022-10-06T14:51:57.114Z,1.60
2022-10-06T14:57:00.223Z,1.50
2022-10-06T15:02:04.065Z,2.00
2022-10-06T15:07:25.793Z,1.90
2022-10-06T15:12:33.126Z,1.80
2022-10-06T15:17:36.930Z,1.60
2022-10-06T15:22:40.139Z,2.00
2022-10-06T15:28:16.648Z,1.70
2022-10-06T15:33:21.688Z,3.00
2022-10-06T15:38:24.590Z,2.30
2022-10-06T15:43:47.363Z,2.40
2022-10-06T15:48:50.268Z,3.00
2022-10-06T15:53:53.582Z,3.10
2022-10-06T15:58:56.483Z,2.80
2022-10-06T16:04:06.255Z,3.10
2022-10-06T16:09:11.099Z,2.20
2022-10-06T16:14:15.440Z,2.00
2022-10-06T16:19:19.717Z,1.80
2022-10-06T16:24:23.678Z,2.10
2022-10-06T16:29:28.125Z,3.30
2022-10-06T16:34:31.766Z,2.40
2022-10-06T16:39:34.669Z,2.20
2022-10-06T16:44:37.471Z,2.30
2022-10-06T16:49:40.273Z,3.50
2022-10-06T16:54:43.075Z,2.70
2022-10-06T16:59:46.962Z,4.00
2022-10-06T17:04:50.113Z,7.90
2022-10-06T17:10:18.475Z,7.30
2022-10-06T17:15:16.611Z,8.00
2022-10-06T17:20:19.614Z,6.70
2022-10-06T17:25:22.519Z,6.10
2022-10-06T17:30:25.329Z,6.50
2022-10-06T17:35:28.229Z,4.90
2022-10-06T17:40:31.556Z,5.20
2022-10-06T17:45:38.750Z,19.10
2022-10-06T17:50:41.648Z,7.10
2022-10-06T17:55:46.809Z,6.60
2022-10-06T18:00:50.996Z,6.60
2022-10-06T18:05:55.143Z,7.50
2022-10-06T18:11:18.969Z,6.30
2022-10-06T18:16:24.609Z,8.30
2022-10-06T18:21:27.966Z,12.10
2022-10-06T18:26:30.855Z,17.30
2022-10-06T18:31:34.335Z,20.10
2022-10-06T18:36:38.050Z,17.10
2022-10-06T18:41:41.308Z,15.30
2022-10-06T18:47:02.746Z,16.20
2022-10-06T18:52:06.987Z,18.80
2022-10-06T18:57:09.790Z,16.00
2022-10-06T19:02:12.781Z,15.40
2022-10-06T19:07:15.617Z,18.00
2022-10-06T19:12:18.907Z,6.70
2022-10-06T19:17:23.451Z,6.30
2022-10-06T19:22:26.361Z,5.80
2022-10-06T19:27:31.817Z,6.90
2022-10-06T19:32:34.722Z,6.30
2022-10-06T19:37:37.836Z,6.80
2022-10-06T19:42:51.066Z,6.20
2022-10-06T19:47:54.801Z,4.90
2022-10-06T19:52:57.708Z,4.90
2022-10-06T19:58:00.611Z,4.30
2022-10-06T20:03:07.614Z,4.70
2022-10-06T20:08:10.414Z,3.60
2022-10-06T20:13:13.213Z,3.90
2022-10-06T20:18:16.528Z,5.20
2022-10-06T20:23:19.452Z,6.60
2022-10-06T20:28:22.688Z,5.40
2022-10-06T20:33:25.653Z,4.80
2022-10-06T20:38:47.092Z,4.40
2022-10-06T20:43:50.885Z,3.90
2022-10-06T20:48:53.823Z,3.60
2022-10-06T20:53:56.610Z,3.70
2022-10-06T20:59:00.142Z,3.60
2022-10-06T21:04:03.667Z,3.30
2022-10-06T21:09:09.137Z,3.90
2022-10-06T21:14:13.569Z,3.90
2022-10-06T21:19:19.035Z,3.80
2022-10-06T21:24:22.865Z,3.90
2022-10-06T21:29:27.510Z,3.70
2022-10-06T21:34:30.412Z,3.90
2022-10-06T21:39:33.316Z,3.90
2022-10-06T21:44:36.323Z,4.20
2022-10-06T21:49:39.227Z,3.60
2022-10-06T21:54:42.132Z,3.80
2022-10-06T21:59:45.035Z,3.90
2022-10-06T22:04:47.937Z,3.90
2022-10-06T22:09:50.947Z,4.10
2022-10-06T22:14:55.082Z,4.00
2022-10-06T22:19:57.981Z,3.50
2022-10-06T22:25:00.885Z,4.10
2022-10-06T22:30:04.454Z,3.50
2022-10-06T22:35:08.297Z,4.70
2022-10-06T22:40:11.650Z,4.70
2022-10-06T22:45:14.551Z,4.30
2022-10-06T22:50:17.455Z,4.70
2022-10-06T22:55:20.364Z,4.30
2022-10-06T23:00:23.306Z,4.60
2022-10-06T23:05:26.374Z,4.50
2022-10-06T23:10:30.711Z,4.40
2022-10-06T23:15:33.616Z,4.40
2022-10-06T23:20:36.723Z,5.50
2022-10-06T23:25:39.731Z,4.80
2022-10-06T23:30:42.739Z,4.50
2022-10-06T23:35:55.368Z,4.90
2022-10-06T23:40:58.689Z,4.80
2022-10-06T23:46:02.418Z,4.70
2022-10-06T23:51:11.354Z,4.80
2022-10-06T23:56:14.359Z,4.70
